Terminal Aerodrome Forecast
Issued by NWS Cleveland, OH

Home | Current Version | Previous Version | Graphics & Text | Print | Product List | Glossary Off
Versions: 1 2 3 4 5 6 7 8 9 10 11 12 13 14 15 16 17 18 19 20 21 22 23 24 25

000
FTUS41 KCLE 181726
TAFCLE
TAF
KCLE 181726Z 1818/1924 26015G25KT P6SM BKN045
     FM190000 27009KT P6SM SCT045 BKN080
     FM190400 27008KT P6SM FEW040 SCT120
     FM191100 23006KT 6SM BR SCT050 BKN110
     FM191500 26008KT P6SM VCSH BKN060
     FM191700 29010KT P6SM VCSH BKN045
     FM192200 30006KT P6SM SCT200=

USA.gov is the U.S. government's official web portal to all federal, state and local government web resources and services.